Portada
METAR-TAF:

METAR-TAF

Aeropuertos :

Aeroparque Jorge Newbery

Buenos Aires, Argentina

latitud: 34-34S, longitud: 058-25W, altitud: 6 m

Observación

El informe se hizo hace 26 minutos, a las 03:00 UTC
Viento 2 kt del oeste
Temperatura 12°C
Humedad 76%
Presión 1018 hPa
Visibilidad 10 km o más
sin nubes por debajo de 1500 m y sin presencia de cumulonimbus.

METAR: SABE 200300Z 28002KT CAVOK 12/08 Q1018 NOSIG

Hora: 00:26 (03:26 UTC)

Pronóstico

El informe se hizo hace 4 horas y 26 minutos, a las 23:00 UTC
Pronóstico válido del 20 a las 00 UTC al 20 a las 24 UTC
Viento 5 kt del noroeste
Visibilidad 10 km o más
sin nubes por debajo de 1500 m y sin presencia de cumulonimbus.
Evolucionando progresivamente
del 20 a las 12 UTC al 20 a las 14 UTC
Viento 3 kt con dirección variable
Nubes dispersas a una altura de 3000 ft

TAF: SABE 192300Z 2000/2024 32005KT CAVOK TX17/2018Z TN12/2011Z BECMG 2012/2014 VRB03KT SCT030

Observaciones y pronósticos meteorológicos de más de 4000 aeropuertos (mensajes METAR y TAF).

Los puntos amarillos y rojos representan las estaciones disponibles.

Ponga el ratón en el punto deseado para ver el nombre de la estación.

Haga clic para ver las observaciones y los pronósticos meteorológicos.

Para cambiar el mapa : haga clic en los botones verdes con una cruz de color negro para hacer un zoom, en el botón verde con un guión para alejar o en las flechas verdes para mapas adyacentes.


METAR-TAF: